createdAt,value
2022-09-17T00:01:05.581Z,2.53
2022-09-17T00:03:34.373Z,2.05
2022-09-17T00:06:03.606Z,1.85
2022-09-17T00:08:30.579Z,0.50
2022-09-17T00:10:57.155Z,0.80
2022-09-17T00:13:23.873Z,2.03
2022-09-17T00:15:52.452Z,1.90
2022-09-17T00:18:19.252Z,0.60
2022-09-17T00:20:47.318Z,0.73
2022-09-17T00:23:15.219Z,1.13
2022-09-17T00:25:44.006Z,2.53
2022-09-17T00:28:11.924Z,0.95
2022-09-17T00:30:43.153Z,1.98
2022-09-17T00:33:13.014Z,1.17
2022-09-17T00:35:39.745Z,2.95
2022-09-17T00:38:09.483Z,1.80
2022-09-17T00:40:36.098Z,2.88
2022-09-17T00:43:03.124Z,2.30
2022-09-17T00:45:32.091Z,6.53
2022-09-17T00:48:05.303Z,2.92
2022-09-17T00:50:36.650Z,1.10
2022-09-17T00:53:13.880Z,1.92
2022-09-17T00:55:45.247Z,2.75
2022-09-17T00:58:15.396Z,2.30
2022-09-17T01:00:43.362Z,2.17
2022-09-17T01:03:09.847Z,1.58
2022-09-17T01:05:45.852Z,2.85
2022-09-17T01:08:25.862Z,2.05
2022-09-17T01:11:01.330Z,1.15
2022-09-17T01:14:03.163Z,1.10
2022-09-17T01:16:35.907Z,1.25
2022-09-17T01:19:51.328Z,2.13
2022-09-17T01:22:47.125Z,3.15
2022-09-17T01:25:25.110Z,2.28
2022-09-17T01:28:13.724Z,5.30
2022-09-17T01:30:55.768Z,5.50
2022-09-17T01:33:44.262Z,8.15
2022-09-17T01:36:19.657Z,8.55
2022-09-17T01:39:03.506Z,8.77
2022-09-17T01:41:41.944Z,8.52
2022-09-17T01:44:22.413Z,9.40
2022-09-17T01:47:01.588Z,10.93
2022-09-17T01:49:31.737Z,9.48
2022-09-17T01:52:00.685Z,12.93
2022-09-17T01:54:37.130Z,10.02
2022-09-17T01:57:16.392Z,9.38
2022-09-17T01:59:49.027Z,15.63
2022-09-17T02:02:30.864Z,18.77
2022-09-17T02:05:05.364Z,15.57
2022-09-17T02:07:37.307Z,19.00
2022-09-17T02:10:18.364Z,14.00
2022-09-17T02:12:59.159Z,13.82
2022-09-17T02:15:35.022Z,15.60
2022-09-17T02:18:17.970Z,20.65
2022-09-17T02:20:54.857Z,21.08
2022-09-17T02:23:29.698Z,24.42
2022-09-17T02:26:04.462Z,23.33
2022-09-17T02:28:39.214Z,16.10
2022-09-17T02:31:06.058Z,17.73
2022-09-17T02:33:35.167Z,21.77
2022-09-17T02:36:02.527Z,19.58
2022-09-17T02:38:30.938Z,18.08
2022-09-17T02:41:26.319Z,19.42
2022-09-17T02:44:24.862Z,18.92
2022-09-17T02:47:09.941Z,23.70
2022-09-17T02:50:14.861Z,20.55
2022-09-17T02:52:59.130Z,26.30
2022-09-17T02:55:34.853Z,17.20
2022-09-17T02:58:25.743Z,20.73
2022-09-17T03:00:52.949Z,20.98
2022-09-17T03:03:21.909Z,20.10
2022-09-17T03:05:48.657Z,18.90
2022-09-17T03:08:20.153Z,16.25
2022-09-17T03:10:49.243Z,16.98
2022-09-17T03:13:16.298Z,19.05
2022-09-17T03:15:43.289Z,17.08
2022-09-17T03:18:09.931Z,18.52
2022-09-17T03:20:36.744Z,17.02
2022-09-17T03:23:03.365Z,21.05
2022-09-17T03:25:29.892Z,23.27
2022-09-17T03:27:56.365Z,25.85
2022-09-17T03:30:22.840Z,19.08
2022-09-17T03:32:49.340Z,23.08
2022-09-17T03:35:15.842Z,13.60
2022-09-17T03:37:43.114Z,20.30
2022-09-17T03:40:10.389Z,25.08
2022-09-17T03:42:36.883Z,17.48
2022-09-17T03:45:03.496Z,19.55
2022-09-17T03:47:30.739Z,18.13
2022-09-17T03:49:57.787Z,17.30
2022-09-17T03:52:24.286Z,22.55
2022-09-17T03:54:50.800Z,17.42
2022-09-17T03:57:17.254Z,14.52
2022-09-17T03:59:43.791Z,15.70
2022-09-17T04:02:10.303Z,29.40
2022-09-17T04:04:36.913Z,27.42
2022-09-17T04:07:05.722Z,25.77
2022-09-17T04:09:33.448Z,25.60
2022-09-17T04:12:02.034Z,22.60
2022-09-17T04:14:28.553Z,22.55
2022-09-17T04:16:55.258Z,23.05
2022-09-17T04:19:21.735Z,24.85
2022-09-17T04:21:48.226Z,23.17
2022-09-17T04:24:14.674Z,27.23
2022-09-17T04:26:41.181Z,20.63
2022-09-17T04:29:07.874Z,24.42
2022-09-17T04:31:34.456Z,34.35
2022-09-17T04:34:01.073Z,23.05
2022-09-17T04:36:27.604Z,23.50
2022-09-17T04:38:54.209Z,28.38
2022-09-17T04:41:20.751Z,26.20
2022-09-17T04:43:50.294Z,24.13
2022-09-17T04:46:16.873Z,25.83
2022-09-17T04:48:43.645Z,22.30
2022-09-17T04:51:10.267Z,23.30
2022-09-17T04:53:38.501Z,21.25
2022-09-17T04:56:05.333Z,27.35
2022-09-17T04:58:33.004Z,20.02
2022-09-17T05:00:59.638Z,19.13
2022-09-17T05:03:26.522Z,20.85
2022-09-17T05:05:53.038Z,17.67
2022-09-17T05:08:19.503Z,23.85
2022-09-17T05:10:46.015Z,22.50
2022-09-17T05:13:12.486Z,27.50
2022-09-17T05:15:39.045Z,23.15
2022-09-17T05:18:05.613Z,19.23
2022-09-17T05:20:32.067Z,18.00
2022-09-17T05:22:58.553Z,19.70
2022-09-17T05:25:25.102Z,24.80
2022-09-17T05:27:53.424Z,21.50
2022-09-17T05:30:20.518Z,27.55
2022-09-17T05:32:47.300Z,21.80
2022-09-17T05:35:14.194Z,21.67
2022-09-17T05:37:40.761Z,20.90
2022-09-17T05:40:08.881Z,20.02
2022-09-17T05:42:35.565Z,21.08
2022-09-17T05:45:02.139Z,20.23
2022-09-17T05:47:28.710Z,21.02
2022-09-17T05:49:55.168Z,16.45
2022-09-17T05:52:21.624Z,22.67
2022-09-17T05:54:48.654Z,25.27
2022-09-17T05:57:15.987Z,22.00
2022-09-17T05:59:42.526Z,29.27
2022-09-17T06:02:15.314Z,24.17
2022-09-17T06:04:41.787Z,17.60
2022-09-17T06:07:09.279Z,19.35
2022-09-17T06:09:40.557Z,22.02
2022-09-17T06:12:07.385Z,23.27
2022-09-17T06:14:33.837Z,19.60
2022-09-17T06:17:00.431Z,24.15
2022-09-17T06:19:27.672Z,24.80
2022-09-17T06:21:54.256Z,19.85
2022-09-17T06:24:20.697Z,26.05
2022-09-17T06:26:47.200Z,28.05
2022-09-17T06:29:15.192Z,25.85
2022-09-17T06:31:44.812Z,22.10
2022-09-17T06:34:11.797Z,18.63
2022-09-17T06:36:38.360Z,20.65
2022-09-17T06:39:04.869Z,16.60
2022-09-17T06:41:31.507Z,17.58
2022-09-17T06:43:58.687Z,21.52
2022-09-17T06:46:25.528Z,24.85
2022-09-17T06:48:52.175Z,22.83
2022-09-17T06:51:18.673Z,21.02
2022-09-17T06:53:45.163Z,18.55
2022-09-17T06:56:11.625Z,24.33
2022-09-17T06:58:38.509Z,17.40
2022-09-17T07:01:05.893Z,24.00
2022-09-17T07:03:33.395Z,21.80
2022-09-17T07:06:00.336Z,26.02
2022-09-17T07:08:26.980Z,19.13
2022-09-17T07:10:57.384Z,20.55
2022-09-17T07:13:24.814Z,22.92
2022-09-17T07:15:59.374Z,25.83
2022-09-17T07:18:26.953Z,22.33
2022-09-17T07:20:57.699Z,21.23
2022-09-17T07:23:26.953Z,23.45
2022-09-17T07:26:01.775Z,20.70
2022-09-17T07:28:29.125Z,16.98
2022-09-17T07:30:56.522Z,23.73
2022-09-17T07:33:25.653Z,28.15
2022-09-17T07:35:56.732Z,32.35
2022-09-17T07:38:24.407Z,19.20
2022-09-17T07:41:09.667Z,21.08
2022-09-17T07:43:36.349Z,18.95
2022-09-17T07:46:05.656Z,12.55
2022-09-17T07:48:32.440Z,21.70
2022-09-17T07:50:59.047Z,26.98
2022-09-17T07:53:29.443Z,21.63
2022-09-17T07:55:58.532Z,23.20
2022-09-17T07:58:30.641Z,21.60
2022-09-17T08:01:06.956Z,17.23
2022-09-17T08:03:33.715Z,20.48
2022-09-17T08:06:05.495Z,16.90
2022-09-17T08:08:33.730Z,26.88
2022-09-17T08:11:10.746Z,26.65
2022-09-17T08:13:37.915Z,22.50
2022-09-17T08:16:07.225Z,19.58
2022-09-17T08:18:34.345Z,19.90
2022-09-17T08:21:03.040Z,21.52
2022-09-17T08:23:30.925Z,26.15
2022-09-17T08:25:59.868Z,20.25
2022-09-17T08:28:31.399Z,19.25
2022-09-17T08:31:03.404Z,24.33
2022-09-17T08:33:34.800Z,20.80
2022-09-17T08:36:01.562Z,21.33
2022-09-17T08:38:29.331Z,20.98
2022-09-17T08:41:11.336Z,26.92
2022-09-17T08:44:06.424Z,21.55
2022-09-17T08:46:46.993Z,19.40
2022-09-17T08:49:18.376Z,19.30
2022-09-17T08:51:54.369Z,20.88
2022-09-17T08:54:45.012Z,20.20
2022-09-17T08:57:11.526Z,22.05
2022-09-17T08:59:49.508Z,16.60
2022-09-17T09:02:42.116Z,20.83
2022-09-17T09:05:16.930Z,20.17
2022-09-17T09:07:50.040Z,25.95
2022-09-17T09:10:25.388Z,27.45
2022-09-17T09:12:53.457Z,21.10
2022-09-17T09:16:03.405Z,15.50
2022-09-17T09:18:35.607Z,19.20
2022-09-17T09:21:13.956Z,18.98
2022-09-17T09:23:56.818Z,14.77
2022-09-17T09:26:32.412Z,20.42
2022-09-17T09:29:10.019Z,13.98
2022-09-17T09:32:16.247Z,17.77
2022-09-17T09:34:44.286Z,23.52
2022-09-17T09:37:21.776Z,16.95
2022-09-17T09:39:51.268Z,15.25
2022-09-17T09:42:30.892Z,19.27
2022-09-17T09:45:05.536Z,17.40
2022-09-17T09:47:50.206Z,19.08
2022-09-17T09:51:05.163Z,18.85
2022-09-17T09:56:34.887Z,14.65
2022-09-17T09:59:01.410Z,18.15
2022-09-17T10:01:30.294Z,13.18
2022-09-17T10:03:58.839Z,18.70
2022-09-17T10:06:29.392Z,17.40
2022-09-17T10:08:55.888Z,25.30
2022-09-17T10:11:27.716Z,15.15
2022-09-17T10:14:15.246Z,18.90
2022-09-17T10:16:41.801Z,12.73
2022-09-17T10:19:08.228Z,18.35
2022-09-17T10:21:40.318Z,15.40
2022-09-17T10:27:12.264Z,13.25
2022-09-17T10:29:43.225Z,19.00
2022-09-17T10:32:16.085Z,16.77
2022-09-17T10:34:57.610Z,19.30
2022-09-17T10:37:43.849Z,15.77
2022-09-17T10:40:36.467Z,16.77
2022-09-17T10:43:16.692Z,14.52
2022-09-17T10:45:46.364Z,13.50
2022-09-17T10:48:20.441Z,12.15
2022-09-17T10:50:51.979Z,15.07
2022-09-17T10:53:20.751Z,19.08
2022-09-17T10:55:56.067Z,16.88
2022-09-17T10:58:48.776Z,15.32
2022-09-17T11:01:24.378Z,12.82
2022-09-17T11:03:57.002Z,15.85
2022-09-17T11:07:02.088Z,17.95
2022-09-17T11:09:37.368Z,15.88
2022-09-17T11:12:27.553Z,11.15
2022-09-17T11:15:27.311Z,17.25
2022-09-17T11:18:08.962Z,9.70
2022-09-17T11:20:55.948Z,12.32
2022-09-17T11:23:42.644Z,13.18
2022-09-17T11:26:48.942Z,10.63
2022-09-17T11:29:35.416Z,11.43
2022-09-17T11:32:36.843Z,11.90
2022-09-17T11:35:10.231Z,12.13
2022-09-17T11:38:08.857Z,8.32
2022-09-17T11:40:41.425Z,15.32
2022-09-17T11:43:23.025Z,22.35
2022-09-17T11:46:11.021Z,14.38
2022-09-17T11:48:53.021Z,9.50
2022-09-17T11:51:39.741Z,15.82
2022-09-17T11:54:38.810Z,11.73
2022-09-17T11:57:17.217Z,7.45
2022-09-17T11:59:47.009Z,14.35
2022-09-17T12:02:31.047Z,9.50
2022-09-17T12:05:26.223Z,11.57
2022-09-17T12:08:10.280Z,7.32
2022-09-17T12:10:53.531Z,11.13
2022-09-17T12:13:41.662Z,11.32
2022-09-17T12:16:22.857Z,10.18
2022-09-17T12:19:30.796Z,7.47
2022-09-17T12:22:02.089Z,9.48
2022-09-17T12:24:30.910Z,10.45
2022-09-17T12:27:06.105Z,5.78
2022-09-17T12:30:09.757Z,9.15
2022-09-17T12:33:11.883Z,7.75
2022-09-17T12:36:04.023Z,7.95
2022-09-17T12:38:47.759Z,5.55
2022-09-17T12:41:21.087Z,9.25
2022-09-17T12:44:05.495Z,5.72
2022-09-17T12:46:56.252Z,6.18
2022-09-17T12:49:41.659Z,4.45
2022-09-17T12:52:33.622Z,9.98
2022-09-17T12:55:20.098Z,11.73
2022-09-17T12:58:29.034Z,8.20
2022-09-17T13:01:07.080Z,9.55
2022-09-17T13:03:42.528Z,11.18
2022-09-17T13:06:26.194Z,16.45
2022-09-17T13:09:10.850Z,6.93
2022-09-17T13:12:01.713Z,9.23
2022-09-17T13:14:48.468Z,7.18
2022-09-17T13:17:32.984Z,11.00
2022-09-17T13:19:59.643Z,7.35
2022-09-17T13:22:42.933Z,13.82
2022-09-17T13:25:12.476Z,8.00
2022-09-17T13:27:39.561Z,15.90
2022-09-17T13:30:08.713Z,8.40
2022-09-17T13:32:35.372Z,9.43
2022-09-17T13:35:24.913Z,8.27
2022-09-17T13:37:59.400Z,10.52
2022-09-17T13:40:35.168Z,8.60
2022-09-17T13:43:06.150Z,9.18
2022-09-17T13:45:33.866Z,10.93
2022-09-17T13:48:13.095Z,8.90
2022-09-17T13:50:41.979Z,11.80
2022-09-17T13:53:14.370Z,13.25
2022-09-17T13:55:52.275Z,9.63
2022-09-17T13:58:18.788Z,10.00
2022-09-17T14:01:27.114Z,13.07
2022-09-17T14:03:54.521Z,7.97
2022-09-17T14:06:24.681Z,5.28
2022-09-17T14:08:55.460Z,13.80
2022-09-17T14:11:28.627Z,7.32
2022-09-17T14:14:04.247Z,7.88
2022-09-17T14:16:35.454Z,7.05
2022-09-17T14:19:22.046Z,7.50
2022-09-17T14:21:57.005Z,7.82
2022-09-17T14:24:32.903Z,6.75
2022-09-17T14:27:14.326Z,8.45
2022-09-17T14:29:47.020Z,6.85
2022-09-17T14:32:20.834Z,8.98
2022-09-17T14:34:49.167Z,5.93
2022-09-17T14:37:19.837Z,10.80
2022-09-17T14:39:47.599Z,6.65
2022-09-17T14:42:20.919Z,4.03
2022-09-17T14:44:59.346Z,7.20
2022-09-17T14:47:27.002Z,12.93
2022-09-17T14:49:54.298Z,7.05
2022-09-17T14:52:25.378Z,9.32
2022-09-17T14:55:11.779Z,7.05
2022-09-17T14:57:38.541Z,9.98
2022-09-17T15:00:10.881Z,6.53
2022-09-17T15:02:41.556Z,14.40
2022-09-17T15:05:25.980Z,9.57
2022-09-17T15:08:05.674Z,11.77
2022-09-17T15:10:32.716Z,16.25
2022-09-17T15:13:07.038Z,9.27
2022-09-17T15:15:35.147Z,8.65
2022-09-17T15:18:01.632Z,6.93
2022-09-17T15:20:31.367Z,6.00
2022-09-17T15:23:13.210Z,6.55
2022-09-17T15:25:42.175Z,7.10
2022-09-17T15:28:34.109Z,8.93
2022-09-17T15:31:00.983Z,9.38
2022-09-17T15:33:28.855Z,6.70
2022-09-17T15:36:09.833Z,7.75
2022-09-17T15:38:39.075Z,7.78
2022-09-17T15:41:34.549Z,6.22
2022-09-17T15:44:33.001Z,9.48
2022-09-17T15:47:39.595Z,10.80
2022-09-17T15:50:26.823Z,9.85
2022-09-17T15:53:08.552Z,6.32
2022-09-17T15:55:41.093Z,8.95
2022-09-17T15:58:34.450Z,8.32
2022-09-17T16:01:16.453Z,6.70
2022-09-17T16:06:18.282Z,8.55
2022-09-17T16:08:55.859Z,8.13
2022-09-17T16:11:24.999Z,6.57
2022-09-17T16:13:53.503Z,6.82
2022-09-17T16:16:26.646Z,6.03
2022-09-17T16:18:53.178Z,7.20
2022-09-17T16:21:20.232Z,6.03
2022-09-17T16:24:02.009Z,8.15
2022-09-17T16:26:31.517Z,5.72
2022-09-17T16:29:07.132Z,8.25
2022-09-17T16:31:34.271Z,5.13
2022-09-17T16:34:00.992Z,7.13
2022-09-17T16:36:31.043Z,8.40
2022-09-17T16:38:58.510Z,4.80
2022-09-17T16:41:25.079Z,8.35
2022-09-17T16:43:51.514Z,9.63
2022-09-17T16:46:18.028Z,6.38
2022-09-17T16:48:46.354Z,6.97
2022-09-17T16:51:14.039Z,6.18
2022-09-17T16:53:40.913Z,6.22
2022-09-17T16:56:08.940Z,6.55
2022-09-17T16:58:35.850Z,8.95
2022-09-17T17:01:11.941Z,7.38
2022-09-17T17:03:38.944Z,4.70
2022-09-17T17:06:05.830Z,7.80
2022-09-17T17:08:33.142Z,6.97
2022-09-17T17:10:59.905Z,10.27
2022-09-17T17:13:27.814Z,7.03
2022-09-17T17:15:54.859Z,9.13
2022-09-17T17:18:21.867Z,10.25
2022-09-17T17:20:48.933Z,9.27
2022-09-17T17:23:19.649Z,9.52
2022-09-17T17:25:46.757Z,8.90
2022-09-17T17:28:14.996Z,9.18
2022-09-17T17:30:41.425Z,5.30
2022-09-17T17:33:07.966Z,9.02
2022-09-17T17:35:38.300Z,14.13
2022-09-17T17:38:04.961Z,7.65
2022-09-17T17:40:31.568Z,9.02
2022-09-17T17:42:58.146Z,13.85
2022-09-17T17:45:24.669Z,13.40
2022-09-17T17:47:52.205Z,7.88
2022-09-17T17:50:18.841Z,10.63
2022-09-17T17:52:48.071Z,7.78
2022-09-17T17:55:18.308Z,10.88
2022-09-17T17:57:44.814Z,10.23
2022-09-17T18:00:14.600Z,10.85
2022-09-17T18:02:41.146Z,10.77
2022-09-17T18:05:08.014Z,8.50
2022-09-17T18:07:34.571Z,8.02
2022-09-17T18:10:01.128Z,12.98
2022-09-17T18:12:27.594Z,9.77
2022-09-17T18:14:54.289Z,6.53
2022-09-17T18:17:20.858Z,11.48
2022-09-17T18:19:47.400Z,11.40
2022-09-17T18:22:14.155Z,10.98
2022-09-17T18:24:40.710Z,9.52
2022-09-17T18:27:07.205Z,6.93
2022-09-17T18:29:33.722Z,5.88
2022-09-17T18:32:00.233Z,10.80
2022-09-17T18:34:26.845Z,7.35
2022-09-17T18:36:53.331Z,8.25
2022-09-17T18:39:57.115Z,7.10
2022-09-17T18:42:08.011Z,9.15
2022-09-17T18:44:34.685Z,8.00
2022-09-17T18:47:01.511Z,8.48
2022-09-17T18:49:28.102Z,10.75
2022-09-17T18:51:54.549Z,9.57
2022-09-17T18:54:21.046Z,8.57
2022-09-17T18:56:47.501Z,6.63
2022-09-17T18:59:14.071Z,13.32
2022-09-17T19:01:40.652Z,10.85
2022-09-17T19:04:07.753Z,7.95
2022-09-17T19:06:34.887Z,15.27
2022-09-17T19:09:02.493Z,12.80
2022-09-17T19:11:29.114Z,12.45
2022-09-17T19:13:56.166Z,10.93
2022-09-17T19:16:22.843Z,8.85
2022-09-17T19:18:49.538Z,12.95
2022-09-17T19:21:21.524Z,8.40
2022-09-17T19:26:20.788Z,8.82
2022-09-17T19:28:47.440Z,12.38
2022-09-17T19:31:16.778Z,12.63
2022-09-17T19:33:43.835Z,11.93
2022-09-17T19:36:12.937Z,12.02
2022-09-17T19:38:39.586Z,11.82
2022-09-17T19:41:09.662Z,14.18
2022-09-17T19:43:39.652Z,11.10
2022-09-17T19:46:10.224Z,12.80
2022-09-17T19:48:36.789Z,11.30
2022-09-17T19:51:06.333Z,9.20
2022-09-17T19:53:32.881Z,11.27
2022-09-17T19:55:59.362Z,10.85
2022-09-17T19:58:25.906Z,11.63
2022-09-17T20:00:59.069Z,14.95
2022-09-17T20:03:26.037Z,9.23
2022-09-17T20:06:03.169Z,13.18
2022-09-17T20:08:29.979Z,11.85
2022-09-17T20:10:56.693Z,12.85
2022-09-17T20:13:25.417Z,12.90
2022-09-17T20:15:51.946Z,15.77
2022-09-17T20:18:22.672Z,11.48
2022-09-17T20:20:50.045Z,15.68
2022-09-17T20:23:16.628Z,12.85
2022-09-17T20:25:45.729Z,12.05
2022-09-17T20:28:12.239Z,14.30
2022-09-17T20:30:38.685Z,12.50
2022-09-17T20:33:05.142Z,10.60
2022-09-17T20:35:31.807Z,19.85
2022-09-17T20:40:44.906Z,17.30
2022-09-17T20:43:11.387Z,22.20
2022-09-17T20:45:37.861Z,16.70
2022-09-17T20:48:04.387Z,21.13
2022-09-17T20:50:30.881Z,15.48
2022-09-17T20:52:57.538Z,19.25
2022-09-17T20:55:24.049Z,17.67
2022-09-17T20:57:53.560Z,14.52
2022-09-17T21:00:21.276Z,22.85
2022-09-17T21:02:54.113Z,13.65
2022-09-17T21:05:20.584Z,22.02
2022-09-17T21:07:47.030Z,20.38
2022-09-17T21:10:13.684Z,15.32
2022-09-17T21:12:40.184Z,17.63
2022-09-17T21:15:07.069Z,22.75
2022-09-17T21:17:34.551Z,17.52
2022-09-17T21:20:01.263Z,17.88
2022-09-17T21:22:31.196Z,21.90
2022-09-17T21:24:59.429Z,15.73
2022-09-17T21:27:25.870Z,18.95
2022-09-17T21:29:52.405Z,19.50
2022-09-17T21:32:18.840Z,20.77
2022-09-17T21:34:45.298Z,15.93
2022-09-17T21:37:11.755Z,22.02
2022-09-17T21:39:38.934Z,19.23
2022-09-17T21:42:05.498Z,18.20
2022-09-17T21:44:31.930Z,17.13
2022-09-17T21:46:58.548Z,25.50
2022-09-17T21:49:25.285Z,18.05
2022-09-17T21:51:51.925Z,15.15
2022-09-17T21:54:19.020Z,12.07
2022-09-17T21:56:46.824Z,12.10
2022-09-17T21:59:14.739Z,18.95
2022-09-17T22:01:46.307Z,15.73
2022-09-17T22:04:17.254Z,15.88
2022-09-17T22:06:44.788Z,15.13
2022-09-17T22:09:24.340Z,20.17
2022-09-17T22:11:52.262Z,20.05
2022-09-17T22:14:20.785Z,12.82
2022-09-17T22:16:53.129Z,17.15
2022-09-17T22:19:21.494Z,12.70
2022-09-17T22:21:53.735Z,12.35
2022-09-17T22:24:21.553Z,19.38
2022-09-17T22:26:55.947Z,15.60
2022-09-17T22:29:24.377Z,12.00
2022-09-17T22:31:51.026Z,16.52
2022-09-17T22:34:20.756Z,21.30
2022-09-17T22:36:47.446Z,22.40
2022-09-17T22:39:14.004Z,13.50
2022-09-17T22:41:45.168Z,11.95
2022-09-17T22:44:14.249Z,16.73
2022-09-17T22:46:46.389Z,16.60
2022-09-17T22:49:13.568Z,12.68
2022-09-17T22:51:41.258Z,15.13
2022-09-17T22:54:11.312Z,13.55
2022-09-17T22:56:37.852Z,15.75
2022-09-17T22:59:04.808Z,15.20
2022-09-17T23:01:33.952Z,10.75
2022-09-17T23:04:01.304Z,15.15
2022-09-17T23:06:31.553Z,18.15
2022-09-17T23:08:59.305Z,16.80
2022-09-17T23:11:31.604Z,10.80
2022-09-17T23:14:02.201Z,19.08
2022-09-17T23:16:33.673Z,14.05
2022-09-17T23:19:00.205Z,14.23
2022-09-17T23:21:26.755Z,16.15
2022-09-17T23:23:53.252Z,16.90
2022-09-17T23:26:22.908Z,18.08
2022-09-17T23:28:50.631Z,16.35
2022-09-17T23:31:18.493Z,13.05
2022-09-17T23:33:46.025Z,15.40
2022-09-17T23:36:15.474Z,9.65
2022-09-17T23:38:43.390Z,13.88
2022-09-17T23:41:21.711Z,16.70
2022-09-17T23:44:12.315Z,17.55
2022-09-17T23:46:41.746Z,13.40
2022-09-17T23:49:10.516Z,14.88
2022-09-17T23:51:37.092Z,14.43
2022-09-17T23:54:06.868Z,16.35
2022-09-17T23:56:34.123Z,11.32
2022-09-17T23:59:01.656Z,12.20
